Flight Track Log - Related Links

Times and Time Zones

All times are in EDT time to prevent confusion due to time zone crossing. See the AMX205 flight status page for this flight to view local times or setup timezone preferences in your user account.

Time Position Orientation Groundspeed Altitude Reporting Facility
EDT Latitude Longitude Course Direction KTS MPH feet Rate Location/Type
Thu 07:22:00 AM 25.0616 -103.0332 146° Southeast  Level Estimated
Thu 07:23:00 AM 24.9770 -102.9706 146° Southeast  Level Estimated
Thu 07:24:00 AM 24.8924 -102.9081 146° Southeast  Level Estimated
Thu 07:25:00 AM 24.8078 -102.8457 146° Southeast  Level Estimated
Thu 07:26:00 AM 24.7232 -102.7834 146° Southeast  Level Estimated
Thu 07:27:00 AM 24.6385 -102.7212 146° Southeast  Level Estimated
Thu 07:28:00 AM 24.5539 -102.6590 146° Southeast  Level Estimated
Thu 07:29:00 AM 24.4692 -102.5969 146° Southeast  Level Estimated
Thu 07:30:00 AM 24.3844 -102.5349 146° Southeast  Level Estimated
Thu 07:31:00 AM 24.2997 -102.4730 146° Southeast  Level Estimated
Thu 07:32:00 AM 24.2149 -102.4112 146° Southeast  Level Estimated
Thu 07:33:00 AM 24.1301 -102.3495 146° Southeast  Level Estimated
Thu 07:34:00 AM 24.0453 -102.2878 146° Southeast  Level Estimated
Thu 07:35:00 AM 23.9604 -102.2262 146° Southeast  Level Estimated
Thu 07:36:00 AM 23.8755 -102.1647 146° Southeast  Level Estimated
Thu 07:37:00 AM 23.7906 -102.1033 146° Southeast  Level Estimated
Thu 07:38:00 AM 23.7057 -102.0420 147° Southeast  Level Estimated
Thu 07:39:00 AM 23.6208 -101.9807 147° Southeast  Level Estimated
Thu 07:40:00 AM 23.5358 -101.9195 147° Southeast  Level Estimated
Thu 07:41:00 AM 23.4508 -101.8584 147° Southeast  Level Estimated
Thu 07:42:00 AM 23.3658 -101.7974 147° Southeast  Level Estimated
Thu 07:43:00 AM 23.2808 -101.7365 147° Southeast  Level Estimated
Thu 07:44:00 AM 23.1957 -101.6756 147° Southeast  Level Estimated
Thu 07:45:00 AM 23.1106 -101.6148 147° Southeast  Level Estimated
Thu 07:46:00 AM 23.0255 -101.5541 147° Southeast  Level Estimated
Thu 07:47:00 AM 22.9403 -101.4935 147° Southeast  Level Estimated
Thu 07:47:43 AM 22.8810 -101.3870 147° Southeast 456 525 39,000  Level FlightAware ADS-B
Thu 07:48:00 AM 22.8552 -101.4329 147° Southeast  Level Estimated
Thu 07:48:17 AM 22.8160 -101.3390 146° Southeast 458 527 39,000  Level FlightAware ADS-B
Thu 07:48:54 AM 22.7510 -101.2920 146° Southeast 459 528 39,000  Level FlightAware ADS-B
Thu 07:49:29 AM 22.6890 -101.2460 146° Southeast 461 531 39,000  Level FlightAware ADS-B
Thu 07:50:06 AM 22.6240 -101.1980 146° Southeast 462 532 39,000  Level FlightAware ADS-B
Thu 07:50:40 AM 22.5630 -101.1540 146° Southeast 463 533 39,000  Level FlightAware ADS-B
Thu 07:51:21 AM 22.4900 -101.1000 146° Southeast 452 520 39,000  Level FlightAware ADS-B
Thu 07:51:57 AM 22.4270 -101.0550 147° Southeast 450 518 39,000  Level FlightAware ADS-B
Thu 07:52:33 AM 22.3660 -101.0100 146° Southeast 449 517 39,000  Level FlightAware ADS-B
Thu 07:53:05 AM 22.3110 -100.9700 146° Southeast 449 517 39,000  Level FlightAware ADS-B
Thu 07:53:41 AM 22.2540 -100.9180 140° Southeast 445 512 39,000  Level FlightAware ADS-B
Thu 07:54:01 AM 22.2300 -100.8830 127° Southeast 443 510 39,000  Level FlightAware ADS-B
Thu 07:54:37 AM 22.1880 -100.8180 125° Southeast 446 513 39,000  Level FlightAware ADS-B
Thu 07:55:09 AM 22.1430 -100.7670 134° Southeast 446 513 39,000  Level FlightAware ADS-B
Thu 07:55:48 AM 22.0850 -100.7050 135° Southeast 455 524 39,000  Level FlightAware ADS-B
Thu 07:56:23 AM 22.0310 -100.6470 135° Southeast 463 533 39,000  Level FlightAware ADS-B
Thu 07:56:57 AM 21.9800 -100.5920 135° Southeast 464 534 39,000  Level FlightAware ADS-B
Thu 07:57:33 AM 21.9250 -100.5320 135° Southeast 465 535 39,000  Level FlightAware ADS-B
Thu 07:58:04 AM 21.8790 -100.4830 135° Southeast 466 536 39,000  Level FlightAware ADS-B
Thu 07:58:41 AM 21.8220 -100.4210 135° Southeast 467 537 39,000  Level FlightAware ADS-B
Thu 07:59:18 AM 21.7650 -100.3610 136° Southeast 468 539 39,000  Level FlightAware ADS-B
Thu 07:59:53 AM 21.7110 -100.3030 135° Southeast 466 536 39,000  Level FlightAware ADS-B
Thu 08:00:30 AM 21.6560 -100.2440 135° Southeast 454 522 39,000  Level FlightAware ADS-B
Thu 08:01:02 AM 21.6100 -100.1940 135° Southeast 453 521 39,000  Level FlightAware ADS-B
Thu 08:01:37 AM 21.5630 -100.1440 135° Southeast 454 522 39,000  Level FlightAware ADS-B
Thu 08:02:13 AM 21.5180 -100.0950 135° Southeast 454 522 39,000  Level FlightAware ADS-B
Thu 08:02:24 AM 21.4790 -100.0740 153° Southeast 455 524 39,000  Level FlightAware ADS-B
Thu 08:03:01 AM 21.4220 -100.0390 150° Southeast 455 524 39,000  Level FlightAware ADS-B
Thu 08:03:36 AM 21.4790 -100.0740 330° Northwest 455 524 39,000  Level FlightAware ADS-B
Thu 08:04:17 AM 21.2810 -99.9530 150° Southeast 454 522 39,000  Level FlightAware ADS-B
Thu 08:04:53 AM 21.2250 -99.9190 150° Southeast 454 522 39,000  Level FlightAware ADS-B
Thu 08:05:29 AM 21.1700 -99.8840 149° Southeast 454 522 39,000  Level FlightAware ADS-B
Thu 08:06:05 AM 21.1140 -99.8500 150° Southeast 454 522 39,000  Level FlightAware ADS-B
Thu 08:06:41 AM 21.0580 -99.8150 150° Southeast 454 522 39,000  Level FlightAware ADS-B
Thu 08:07:17 AM 21.0030 -99.7810 150° Southeast 454 522 39,000  Level FlightAware ADS-B
Thu 08:07:54 AM 20.9450 -99.7460 151° Southeast 454 522 39,000  Level FlightAware ADS-B
Thu 08:08:28 AM 20.8930 -99.7130 149° Southeast 454 522 39,000  Level FlightAware ADS-B
Thu 08:09:05 AM 20.8360 -99.6780 150° Southeast 454 522 39,000  Level FlightAware ADS-B
Thu 08:09:41 AM 20.7800 -99.6430 150° Southeast 454 522 39,000  Level FlightAware ADS-B
Thu 08:10:17 AM 20.7240 -99.6090 150° Southeast 454 522 39,000  Level FlightAware ADS-B
Thu 08:10:54 AM 20.6670 -99.5740 150° Southeast 454 522 39,000  Level FlightAware ADS-B
Thu 08:11:35 AM 20.6040 -99.5350 150° Southeast 454 522 39,000  Level FlightAware ADS-B
Thu 08:12:11 AM 20.5480 -99.5000 150° Southeast 454 522 39,000  Level FlightAware ADS-B
Thu 08:12:47 AM 20.4920 -99.4660 150° Southeast 454 522 39,000  Level FlightAware ADS-B
Thu 08:13:25 AM 20.4340 -99.4300 150° Southeast 454 522 39,000 -4,592 Level FlightAware ADS-B
Thu 08:16:00 AM 20.1849 -99.3402 161° South  Level Estimated
Thu 08:17:00 AM 20.0884 -99.3055 161° South  Level Estimated
Thu 08:17:24 AM 19.8840 -99.3260 161° South 292 336 17,800  Level FlightAware ADS-B
Thu 08:17:55 AM 19.8460 -99.3140 163° South 289 333 17,000 -1,457 Descending FlightAware ADS-B
Thu 08:18:34 AM 19.7930 -99.2990 165° South 283 326 16,100 -889 Descending FlightAware ADS-B
Thu 08:19:16 AM 19.7430 -99.2840 164° South 261 300 15,800 -692 Descending FlightAware ADS-B
Thu 08:19:52 AM 19.7000 -99.2710 164° South 266 306 15,200 -1,235 Descending FlightAware ADS-B
Thu 08:20:24 AM 19.6620 -99.2600 165° South 270 311 14,400 -1,412 Descending FlightAware ADS-B
Thu 08:21:00 AM 19.6180 -99.2470 164° South 267 307 13,600 -1,371 Descending FlightAware ADS-B
Thu 08:21:34 AM 19.5780 -99.2350 164° South 253 291 12,800 -1,352 Descending FlightAware ADS-B
Thu 08:22:11 AM 19.5390 -99.2240 165° South 235 270 12,000 -1,324 Descending FlightAware ADS-B
Thu 08:22:42 AM 19.5060 -99.2150 166° South 221 254 11,300 -1,164 Descending FlightAware ADS-B
Thu 08:23:18 AM 19.4730 -99.2060 166° South 202 232 10,700 -1,000 Descending FlightAware ADS-B
Thu 08:23:54 AM 19.4410 -99.1980 167° South 195 224 10,100 -1,111 Descending FlightAware ADS-B
Thu 08:24:12 AM 19.4240 -99.1940 167° South 193 222 9,700 -1,200 Descending FlightAware ADS-B
Thu 08:24:34 AM 19.4050 -99.1890 166° South 195 224 9,300 -1,235 Descending FlightAware ADS-B
Thu 08:24:46 AM 19.3950 -99.1860 164° South 196 226 9,000 -1,250 Descending FlightAware ADS-B
Thu 08:24:58 AM 19.3870 -99.1790 140° Southeast 192 221 8,800 -750 Descending FlightAware ADS-B
Thu 08:25:02 AM 19.3850 -99.1760 125° Southeast 188 216 8,800 -500 Level FlightAware ADS-B
Thu 08:25:10 AM 19.3840 -99.1680 98° East 181 208 8,700 -938 Descending FlightAware ADS-B
Thu 08:25:34 AM 19.3920 -99.1490 66° East 182 209 8,300 -857 Descending FlightAware ADS-B
Thu 08:25:52 AM 19.4000 -99.1350 59° Northeast 173 199 8,100 -789 Descending FlightAware ADS-B
Thu 08:26:12 AM 19.4070 -99.1210 62° Northeast 169 194 7,800 -436 Descending FlightAware ADS-B
Thu 08:26:47 AM 19.4190 -99.1000 59° Northeast 167 192 7,700 -171 Descending FlightAware ADS-B
Thu 08:29:00 AM 19.4363 -99.0721 57° Northeast  Level Estimated
Thu 08:30:00 AM 19.4363 -99.0721 43° Northeast  Level Estimated
Thu 08:31:00 AM 19.4363 -99.0721 43° Northeast  Level Estimated
Thu 08:32:00 AM 19.4363 -99.0721 43° Northeast  Level Estimated
Thu 08:33:00 AM 19.4363 -99.0721 43° Northeast  Level Estimated
Thu 08:34:00 AM 19.4363 -99.0721 43° Northeast  Level Estimated
Thu 08:35:00 AM 19.4363 -99.0721 43° Northeast  Level Estimated
Thu 08:36:00 AM 19.4363 -99.0721 43° Northeast  Level Estimated
Thu 08:37:00 AM 19.4363 -99.0721 43° Northeast  Level Estimated
Thu 08:38:00 AM 19.4363 -99.0721 43° Northeast  Level Estimated
Thu 08:39:00 AM 19.4363 -99.0721 43° Northeast  Level Estimated
Thu 08:40:00 AM 19.4363 -99.0721 43° Northeast  Level Estimated
Thu 08:41:00 AM 19.4363 -99.0721 43° Northeast  Level Estimated
Thu 08:42:00 AM 19.4363 -99.0721 43° Northeast  Level Estimated
Thu 08:43:00 AM 19.4363 -99.0721 43° Northeast  Level Estimated
Thu 08:44:00 AM 19.4363 -99.0721 43° Northeast  Level Estimated

Login

Don't have an account? Register now (free) for customized features, flight alerts, and more!